Portada
METAR-TAF:

METAR-TAF

Aeropuertos :

Aeropuerto de Gran Canaria

Gran Canaria, España

latitud: 27-56N, longitud: 015-23W, altitud: 23 m

Observación

El informe se hizo hace 20 minutos, a las 19:30 UTC
Viento 19 kt del norte
Temperatura 18°C
Humedad 64%
Presión 1020 hPa
Visibilidad 10 km o más
Escasas nubes a una altura de 3500 ft

METAR: GCLP 181930Z 01019KT 9999 FEW035 18/11 Q1020 NOSIG

Hora: 19:50 (19:50 UTC)

Pronóstico

El informe se hizo hace 5 horas y 50 minutos, a las 14:00 UTC
Pronóstico válido del 18 a las 15 UTC al 19 a las 15 UTC
Viento 25 kt del norte-noreste
Visibilidad 10 km o más
Escasas nubes a una altura de 3000 ft

TAF: GCLP 181400Z 1815/1915 02025KT 9999 FEW030 TX22/1914Z TN16/1906Z

Observaciones y pronósticos meteorológicos de más de 4000 aeropuertos (mensajes METAR y TAF).

Los puntos amarillos y rojos representan las estaciones disponibles.

Ponga el ratón en el punto deseado para ver el nombre de la estación.

Haga clic para ver las observaciones y los pronósticos meteorológicos.

Para cambiar el mapa : haga clic en los botones verdes con una cruz de color negro para hacer un zoom, en el botón verde con un guión para alejar o en las flechas verdes para mapas adyacentes.


METAR-TAF: